Time;durP1;ratioP1;P1;durP2;ratioP2;P2;SDS_P1;SDS_P2;PMS_P1;PMS_P2;Temp;Humidity;BMP_temperature;BMP_pressure;BME280_temperature;BME280_humidity;BME280_pressure;Samples;Min_cycle;Max_cycle;Signal;HPM_P1;HPM_P2
2024/01/21 00:02:11;;;;;;;6.88;3.00;;;;;;;0.53;100.00;102336.88;6252210;28;20053;-73
2024/01/21 00:05:13;;;;;;;7.97;2.47;;;;;;;0.51;100.00;102334.28;6251430;28;20057;-73
2024/01/21 00:08:14;;;;;;;10.80;2.97;;;;;;;0.51;100.00;102336.88;6251623;28;20057;-73
2024/01/21 00:11:15;;;;;;;8.55;2.25;;;;;;;0.50;100.00;102320.50;6252053;28;20053;-72
2024/01/21 00:14:17;;;;;;;3.67;2.17;;;;;;;0.48;100.00;102319.59;6251937;28;20064;-73
2024/01/21 00:17:19;;;;;;;8.50;3.03;;;;;;;0.43;100.00;102316.06;6251493;28;20057;-72
2024/01/21 00:20:21;;;;;;;6.75;2.15;;;;;;;0.31;100.00;102300.38;6251710;28;20052;-72
2024/01/21 00:23:22;;;;;;;5.70;2.35;;;;;;;0.31;100.00;102292.63;6251097;28;20050;-72
2024/01/21 00:26:24;;;;;;;5.80;2.63;;;;;;;0.22;100.00;102292.50;6250396;28;20050;-73
2024/01/21 00:29:25;;;;;;;9.95;2.88;;;;;;;0.31;100.00;102284.00;6251694;28;20042;-72
2024/01/21 00:32:27;;;;;;;11.63;2.83;;;;;;;0.32;100.00;102273.69;6250947;28;20357;-72
2024/01/21 00:35:29;;;;;;;8.07;3.13;;;;;;;0.31;100.00;102274.53;6251696;28;20053;-72
2024/01/21 00:38:30;;;;;;;5.90;3.17;;;;;;;0.30;100.00;102275.38;6250489;28;20053;-72
2024/01/21 00:41:31;;;;;;;4.93;2.78;;;;;;;0.25;100.00;102270.16;6251488;28;20076;-73
2024/01/21 00:44:33;;;;;;;10.63;3.25;;;;;;;0.21;100.00;102264.91;6250945;28;20476;-72
2024/01/21 00:47:35;;;;;;;5.57;2.70;;;;;;;0.16;100.00;102262.25;6250959;28;20056;-72
2024/01/21 00:50:37;;;;;;;6.95;2.78;;;;;;;0.06;100.00;102257.81;6251316;28;20049;-73
2024/01/21 00:53:38;;;;;;;7.65;2.60;;;;;;;0.05;100.00;102242.31;6251133;28;20052;-72
2024/01/21 00:56:39;;;;;;;4.57;2.63;;;;;;;0.12;100.00;102249.28;6250926;28;20053;-73
2024/01/21 00:59:42;;;;;;;12.07;4.28;;;;;;;0.10;100.00;102258.75;6250841;28;20054;-72
2024/01/21 01:02:45;;;;;;;12.52;3.83;;;;;;;0.10;100.00;102254.44;6250568;28;20144;-72
2024/01/21 01:05:46;;;;;;;10.32;3.55;;;;;;;0.11;100.00;102243.25;6249843;28;20364;-72
2024/01/21 01:08:47;;;;;;;8.63;3.58;;;;;;;0.07;100.00;102243.19;6250862;28;20075;-72
2024/01/21 01:11:49;;;;;;;8.70;2.88;;;;;;;0.05;100.00;102231.97;6253693;28;20144;-72
2024/01/21 01:14:50;;;;;;;6.70;3.20;;;;;;;0.06;100.00;102242.31;6254472;28;20046;-72
2024/01/21 01:17:53;;;;;;;6.45;2.85;;;;;;;0.07;100.00;102232.84;6253664;28;20457;-72
2024/01/21 01:20:54;;;;;;;6.75;3.00;;;;;;;0.06;100.00;102223.34;6251403;28;20042;-73
2024/01/21 01:23:55;;;;;;;13.05;4.43;;;;;;;-0.06;100.00;102213.72;6250980;28;20056;-72
2024/01/21 01:26:57;;;;;;;7.43;3.55;;;;;;;-0.12;100.00;102213.63;6250392;28;20049;-72
2024/01/21 01:29:58;;;;;;;11.30;4.22;;;;;;;-0.19;100.00;102204.03;6250917;28;20056;-73
2024/01/21 01:33:01;;;;;;;9.38;3.13;;;;;;;-0.20;100.00;102215.22;6250403;28;20049;-72
2024/01/21 01:36:02;;;;;;;12.40;4.43;;;;;;;-0.17;100.00;102212.69;6249762;28;20061;-72
2024/01/21 01:39:03;;;;;;;10.63;3.85;;;;;;;-0.17;100.00;102205.81;6250118;28;20046;-72
2024/01/21 01:42:05;;;;;;;11.88;4.13;;;;;;;-0.23;100.00;102207.44;6250437;28;20393;-72
2024/01/21 01:45:07;;;;;;;9.55;4.22;;;;;;;-0.19;100.00;102204.03;6250008;28;20052;-72
2024/01/21 01:48:10;;;;;;;7.88;3.50;;;;;;;-0.13;100.00;102202.44;6249893;28;20046;-72
2024/01/21 01:51:11;;;;;;;8.68;3.08;;;;;;;-0.20;100.00;102207.47;6250371;28;20046;-72
2024/01/21 01:54:13;;;;;;;8.20;3.10;;;;;;;-0.19;100.00;102201.47;6250182;28;20049;-72
2024/01/21 01:57:16;;;;;;;8.45;3.55;;;;;;;-0.16;100.00;102186.88;6249942;28;20068;-72
2024/01/21 02:00:17;;;;;;;8.88;4.05;;;;;;;-0.17;100.00;102182.56;6250107;28;20175;-73
2024/01/21 02:03:20;;;;;;;8.98;3.33;;;;;;;-0.16;100.00;102189.47;6250050;28;20056;-73
2024/01/21 02:06:21;;;;;;;6.38;3.05;;;;;;;-0.02;100.00;102177.59;6249268;28;20354;-72
2024/01/21 02:09:23;;;;;;;8.10;3.25;;;;;;;0.02;100.00;102167.31;6249855;28;20049;-72
2024/01/21 02:12:24;;;;;;;6.95;3.15;;;;;;;0.08;100.00;102173.41;6248650;28;20049;-72
2024/01/21 02:15:25;;;;;;;9.35;2.97;;;;;;;0.14;100.00;102165.75;6248507;28;20054;-72
2024/01/21 02:18:28;;;;;;;8.93;3.60;;;;;;;0.14;100.00;102164.88;6252752;28;20064;-73
2024/01/21 02:21:29;;;;;;;6.25;2.35;;;;;;;0.18;100.00;102166.63;6254743;28;20438;-73
2024/01/21 02:24:33;;;;;;;12.18;3.85;;;;;;;0.22;98.22;102152.91;6254419;28;20057;-72
2024/01/21 02:27:34;;;;;;;8.13;2.97;;;;;;;0.22;100.00;102168.41;6254249;28;20049;-72
2024/01/21 02:30:40;;;;;;;5.43;2.70;;;;;;;0.24;98.89;102175.34;6254657;28;20055;-72
2024/01/21 02:33:42;;;;;;;7.45;2.30;;;;;;;0.28;97.79;102173.66;6254013;28;20049;-72
2024/01/21 02:36:44;;;;;;;6.63;2.53;;;;;;;0.31;96.95;102172.81;6253579;28;20072;-73
2024/01/21 02:39:46;;;;;;;4.18;2.00;;;;;;;0.33;95.41;102166.84;6254102;28;20128;-72
2024/01/21 02:42:48;;;;;;;6.82;2.30;;;;;;;0.40;96.38;102160.00;6254241;28;20445;-73
2024/01/21 02:45:49;;;;;;;7.93;2.95;;;;;;;0.36;97.57;102158.22;6253557;28;20056;-73
2024/01/21 02:48:50;;;;;;;7.20;3.20;;;;;;;0.34;95.56;102145.28;6254237;28;20041;-72
2024/01/21 02:51:52;;;;;;;4.60;2.10;;;;;;;0.32;97.07;102138.34;6254035;28;20053;-72
2024/01/21 02:54:54;;;;;;;6.00;2.50;;;;;;;0.32;97.40;102123.75;6253632;28;20450;-72
2024/01/21 02:57:56;;;;;;;7.40;2.53;;;;;;;0.29;96.57;102112.50;6253452;28;20049;-72
2024/01/21 03:00:57;;;;;;;3.45;1.92;;;;;;;0.29;96.15;102094.41;6253705;28;20217;-73
2024/01/21 03:07:01;;;;;;;5.07;2.47;;;;;;;0.32;92.36;102097.00;6325746;28;20052;-73
2024/01/21 03:10:05;;;;;;;4.57;2.45;;;;;;;0.39;93.97;102094.50;6328407;28;20352;-72
2024/01/21 03:13:07;;;;;;;5.50;2.22;;;;;;;0.44;94.19;102098.00;6328161;28;20136;-71
2024/01/21 03:16:08;;;;;;;3.83;1.80;;;;;;;0.46;90.55;102087.69;6344311;28;20188;-71
2024/01/21 03:19:10;;;;;;;3.63;1.95;;;;;;;0.58;87.33;102086.91;6352553;28;20044;-71
2024/01/21 03:22:11;;;;;;;4.97;2.17;;;;;;;0.71;85.25;102073.25;6353323;28;20341;-71
2024/01/21 03:25:14;;;;;;;2.97;2.10;;;;;;;0.78;85.10;102071.59;6352937;28;20048;-73
2024/01/21 03:28:15;;;;;;;5.80;1.98;;;;;;;0.83;84.62;102073.34;6352157;28;20361;-71
2024/01/21 03:31:18;;;;;;;4.15;1.48;;;;;;;0.78;84.13;102067.28;6352692;28;20065;-71
2024/01/21 03:34:19;;;;;;;6.35;1.90;;;;;;;0.87;82.26;102053.56;6352996;28;20051;-71
2024/01/21 03:37:21;;;;;;;5.70;2.03;;;;;;;0.88;81.91;102050.97;6352216;28;20044;-71
2024/01/21 03:40:23;;;;;;;6.00;2.60;;;;;;;0.81;84.57;102050.91;6352731;28;20047;-73
2024/01/21 03:43:26;;;;;;;12.93;2.42;;;;;;;0.82;83.86;102043.16;6352272;28;20059;-71
2024/01/21 03:46:27;;;;;;;4.13;1.73;;;;;;;0.83;83.49;102041.44;6351821;28;20039;-71
2024/01/21 03:49:29;;;;;;;6.85;2.45;;;;;;;0.77;84.10;102042.22;6352166;28;20313;-70
2024/01/21 03:52:30;;;;;;;3.30;1.65;;;;;;;0.77;83.52;102037.06;6352686;28;20043;-74
2024/01/21 03:55:32;;;;;;;4.78;1.77;;;;;;;0.74;83.51;102032.75;6352339;28;20048;-72
2024/01/21 03:58:34;;;;;;;4.45;1.90;;;;;;;0.71;83.82;102035.28;6345939;28;20044;-72
2024/01/21 04:01:42;;;;;;;5.63;2.35;;;;;;;0.72;84.93;102026.69;6333771;28;20043;-72
2024/01/21 04:04:45;;;;;;;4.75;2.35;;;;;;;0.69;82.94;102031.84;6350364;28;20463;-74
2024/01/21 04:07:46;;;;;;;3.70;2.00;;;;;;;0.75;83.27;102020.69;6351520;28;20048;-73
2024/01/21 04:10:50;;;;;;;4.78;1.95;;;;;;;0.69;84.73;102005.97;6352189;28;20055;-72
2024/01/21 04:13:51;;;;;;;3.28;1.90;;;;;;;0.64;85.89;101997.31;6355555;27;20055;-73
2024/01/21 04:16:53;;;;;;;4.10;2.15;;;;;;;0.61;86.63;101984.34;6352926;27;20393;-72
2024/01/21 04:19:54;;;;;;;3.10;1.67;;;;;;;0.58;87.81;101973.97;6355220;27;20039;-71
2024/01/21 04:22:55;;;;;;;5.45;2.53;;;;;;;0.56;83.44;101962.75;6351691;28;20131;-74
2024/01/21 04:25:58;;;;;;;9.35;1.77;;;;;;;0.61;80.95;101970.56;6351302;28;20356;-71
2024/01/21 04:28:59;;;;;;;3.47;1.77;;;;;;;0.63;79.70;101969.69;6352322;28;20054;-74
2024/01/21 04:32:01;;;;;;;3.40;1.73;;;;;;;0.75;74.71;101959.44;6351614;28;20446;-73
2024/01/21 04:35:02;;;;;;;3.80;1.67;;;;;;;0.82;72.46;101939.66;6351446;28;20043;-73
2024/01/21 04:38:04;;;;;;;4.53;1.67;;;;;;;0.77;73.95;101946.50;6354582;27;20132;-74
2024/01/21 04:41:06;;;;;;;3.15;1.83;;;;;;;0.81;74.24;101937.91;6350792;28;20047;-74
2024/01/21 04:44:08;;;;;;;5.43;1.65;;;;;;;0.83;71.93;101938.81;6350985;28;20047;-73
2024/01/21 04:47:10;;;;;;;2.22;1.70;;;;;;;0.87;70.58;101937.97;6350715;28;20189;-73
2024/01/21 04:50:12;;;;;;;2.67;1.38;;;;;;;0.92;66.26;101943.16;6351207;28;20562;-74
2024/01/21 04:53:13;;;;;;;4.43;1.38;;;;;;;0.87;66.96;101937.09;6351159;28;20056;-73
2024/01/21 04:56:18;;;;;;;2.97;1.35;;;;;;;0.88;67.43;101931.06;6350660;28;20048;-73
2024/01/21 04:59:20;;;;;;;5.28;1.52;;;;;;;0.96;65.66;101927.66;6351282;28;20134;-73
2024/01/21 05:02:21;;;;;;;2.45;1.50;;;;;;;1.00;63.95;101925.97;6353237;27;20058;-74
2024/01/21 05:05:22;;;;;;;3.53;1.30;;;;;;;1.01;64.57;101927.69;6355071;27;20048;-73
2024/01/21 05:08:24;;;;;;;5.07;1.70;;;;;;;1.01;63.91;101927.69;6350527;28;20043;-72
2024/01/21 05:11:26;;;;;;;4.13;1.52;;;;;;;1.05;64.16;101915.63;6350822;28;20047;-73
2024/01/21 05:14:28;;;;;;;3.45;1.60;;;;;;;1.10;60.58;101913.94;6350646;28;20137;-73
2024/01/21 05:17:29;;;;;;;3.08;1.20;;;;;;;1.14;61.83;101913.94;6350277;28;20070;-73
2024/01/21 05:20:30;;;;;;;3.83;1.58;;;;;;;1.15;60.95;101909.63;6350826;28;20050;-73
2024/01/21 05:23:33;;;;;;;3.33;1.40;;;;;;;1.18;59.00;101905.34;6350375;28;20324;-74
2024/01/21 05:26:42;;;;;;;7.28;1.30;;;;;;;1.25;58.72;101899.31;6350334;28;20066;-73
2024/01/21 05:29:44;;;;;;;2.75;1.48;;;;;;;1.24;58.86;101882.03;6350585;28;20058;-73
2024/01/21 05:32:46;;;;;;;1.98;1.40;;;;;;;1.24;59.78;101871.69;6350436;28;20050;-73
2024/01/21 05:35:47;;;;;;;2.63;1.67;;;;;;;1.27;58.04;101871.72;6349946;28;20039;-74
2024/01/21 05:38:48;;;;;;;3.38;1.50;;;;;;;1.34;57.54;101856.19;6350137;28;20047;-73
2024/01/21 05:42:07;;;;;;;3.45;1.42;;;;;;;1.39;57.17;101850.16;6350450;28;20040;-73
2024/01/21 05:45:10;;;;;;;3.40;1.40;;;;;;;1.41;57.64;101839.78;6347414;28;20066;-73
2024/01/21 05:48:12;;;;;;;2.25;1.23;;;;;;;1.34;58.21;101833.72;6349766;28;20060;-74
2024/01/21 05:51:13;;;;;;;2.63;1.20;;;;;;;1.43;56.96;101825.13;6351516;28;20356;-74
2024/01/21 05:54:14;;;;;;;2.30;1.20;;;;;;;1.47;56.17;101821.69;6355265;28;20043;-74
2024/01/21 05:57:17;;;;;;;2.35;1.20;;;;;;;1.46;55.50;101818.22;6354951;28;20051;-74
2024/01/21 06:00:19;;;;;;;2.53;1.52;;;;;;;1.51;54.23;101803.56;6355542;28;20040;-73
2024/01/21 06:03:20;;;;;;;3.20;1.23;;;;;;;1.58;54.77;101801.81;6354889;28;20328;-74
2024/01/21 06:06:21;;;;;;;3.05;1.58;;;;;;;1.62;54.38;101798.38;6354417;28;20058;-73
2024/01/21 06:09:23;;;;;;;3.22;1.20;;;;;;;1.63;54.35;101796.63;6355116;28;20047;-73
2024/01/21 06:12:25;;;;;;;2.05;1.20;;;;;;;1.62;53.03;101794.91;6356872;27;20058;-73
2024/01/21 06:15:27;;;;;;;2.88;1.58;;;;;;;1.61;53.26;101794.06;6360286;27;20063;-72
2024/01/21 06:18:28;;;;;;;3.30;1.20;;;;;;;1.64;52.01;101790.63;6354507;28;20055;-73
2024/01/21 06:21:29;;;;;;;2.70;1.30;;;;;;;1.73;52.04;101777.66;6354949;28;20047;-74
2024/01/21 06:24:31;;;;;;;2.30;1.48;;;;;;;1.70;52.03;101773.34;6355237;27;20448;-73
2024/01/21 06:27:33;;;;;;;2.65;1.33;;;;;;;1.69;53.31;101776.78;6354353;28;20051;-73
2024/01/21 06:30:35;;;;;;;2.58;1.48;;;;;;;1.70;53.29;101760.38;6355040;28;20070;-74
2024/01/21 06:33:36;;;;;;;2.92;1.58;;;;;;;1.71;52.33;101763.81;6354425;28;20059;-73
2024/01/21 06:36:38;;;;;;;2.72;1.50;;;;;;;1.87;49.49;101760.38;6353700;28;20562;-74
2024/01/21 06:39:39;;;;;;;4.07;1.10;;;;;;;1.92;50.81;101743.09;6354403;28;20354;-74
2024/01/21 06:42:42;;;;;;;6.00;1.48;;;;;;;1.93;50.75;101739.63;6354178;28;20047;-73
2024/01/21 06:45:43;;;;;;;2.38;1.05;;;;;;;1.97;49.89;101740.47;6353881;28;20051;-74
2024/01/21 06:48:45;;;;;;;2.60;1.10;;;;;;;2.04;51.00;101729.22;6354149;28;20044;-73
2024/01/21 06:51:53;;;;;;;3.55;1.25;;;;;;;2.11;49.49;101722.31;6357919;27;20062;-73
2024/01/21 06:54:55;;;;;;;3.33;1.47;;;;;;;2.13;48.26;101718.81;6353722;28;20047;-75
2024/01/21 06:57:57;;;;;;;4.15;1.27;;;;;;;2.20;49.60;101712.75;6353730;28;20058;-71
2024/01/21 07:00:59;;;;;;;2.28;1.25;;;;;;;2.19;49.83;101712.78;6354010;28;20454;-74
2024/01/21 07:04:01;;;;;;;4.45;1.52;;;;;;;2.22;50.01;101708.41;6352784;28;20047;-71
2024/01/21 07:07:02;;;;;;;2.13;1.40;;;;;;;2.24;48.44;101708.44;6353094;28;20501;-74
2024/01/21 07:10:04;;;;;;;2.50;1.42;;;;;;;2.29;48.94;101707.53;6353656;28;20054;-71
2024/01/21 07:13:06;;;;;;;2.95;1.77;;;;;;;2.33;48.32;101698.03;6353352;28;20048;-72
2024/01/21 07:16:08;;;;;;;2.25;1.48;;;;;;;2.29;49.65;101710.13;6352941;28;20043;-72
2024/01/21 07:19:09;;;;;;;3.50;1.77;;;;;;;2.29;49.34;101707.53;6358224;27;20347;-74
2024/01/21 07:22:10;;;;;;;6.80;1.58;;;;;;;2.29;49.14;101702.34;6353301;28;20043;-74
2024/01/21 07:25:14;;;;;;;2.78;1.45;;;;;;;2.24;49.19;101695.47;6353307;28;20047;-72
2024/01/21 07:28:16;;;;;;;3.17;1.60;;;;;;;2.22;48.53;101707.56;6351966;28;20088;-72
2024/01/21 07:31:18;;;;;;;3.97;1.80;;;;;;;2.31;46.75;101696.28;6352993;28;20051;-72
2024/01/21 07:34:20;;;;;;;9.43;2.30;;;;;;;2.27;49.11;101696.31;6352768;28;20051;-73
2024/01/21 07:37:21;;;;;;;4.10;1.80;;;;;;;2.32;47.17;101690.22;6356362;27;20051;-73
2024/01/21 07:40:23;;;;;;;3.75;1.70;;;;;;;2.36;47.60;101678.97;6344693;28;20047;-73
2024/01/21 07:43:25;;;;;;;5.70;1.58;;;;;;;2.37;48.78;101679.00;6352705;28;20130;-73
2024/01/21 07:46:27;;;;;;;7.32;2.10;;;;;;;2.36;47.76;101682.44;6345653;28;20565;-73
2024/01/21 07:49:28;;;;;;;4.93;1.60;;;;;;;2.37;48.01;101676.41;6350130;28;20047;-73
2024/01/21 07:52:29;;;;;;;4.18;1.83;;;;;;;2.42;48.08;101669.44;6352537;28;20097;-73
2024/01/21 07:55:31;;;;;;;2.63;1.40;;;;;;;2.36;49.75;101673.78;6352523;28;20051;-73
2024/01/21 07:58:33;;;;;;;3.70;1.65;;;;;;;2.41;49.38;101678.09;6352036;28;20589;-73
2024/01/21 08:01:34;;;;;;;2.03;1.30;;;;;;;2.41;49.56;101669.47;6352444;28;20048;-73
2024/01/21 08:04:36;;;;;;;3.50;1.95;;;;;;;2.40;50.22;101667.72;6349499;28;20355;-74
2024/01/21 08:07:37;;;;;;;3.30;1.50;;;;;;;2.42;50.46;101659.06;6349747;28;20363;-74
2024/01/21 08:10:39;;;;;;;1.75;1.10;;;;;;;2.41;50.61;101661.69;6352043;28;20047;-73
2024/01/21 08:13:42;;;;;;;4.95;1.60;;;;;;;2.44;50.18;101656.47;6351659;27;20181;-73
2024/01/21 08:16:43;;;;;;;4.63;2.25;;;;;;;2.47;48.84;101678.06;6351697;27;20062;-74
2024/01/21 08:19:44;;;;;;;2.25;1.30;;;;;;;2.56;47.41;101669.38;6357405;27;20333;-73
2024/01/21 08:22:46;;;;;;;3.95;1.45;;;;;;;2.76;46.05;101669.25;6351950;28;20046;-73
2024/01/21 08:25:47;;;;;;;4.75;1.50;;;;;;;2.79;46.41;101651.94;6351563;28;20050;-73
2024/01/21 08:28:50;;;;;;;3.97;1.45;;;;;;;2.76;48.25;101640.69;6352949;27;20424;-73
2024/01/21 08:31:51;;;;;;;4.20;1.90;;;;;;;2.76;47.29;101653.69;6326480;28;20044;-74
2024/01/21 08:34:52;;;;;;;5.63;2.00;;;;;;;2.79;48.49;101658.84;6326100;28;20139;-73
2024/01/21 08:37:54;;;;;;;3.13;1.92;;;;;;;2.84;46.38;101656.22;6335482;28;20047;-73
2024/01/21 08:40:55;;;;;;;4.57;2.03;;;;;;;2.86;47.72;101662.25;6351157;28;20052;-73
2024/01/21 08:43:58;;;;;;;4.63;1.83;;;;;;;2.91;47.32;101639.75;6351024;28;20044;-73
2024/01/21 08:46:59;;;;;;;4.10;1.92;;;;;;;2.95;46.64;101655.28;6355055;27;20047;-73
2024/01/21 08:50:06;;;;;;;7.85;1.88;;;;;;;3.01;46.78;101662.16;6348911;27;20516;-77
2024/01/21 08:53:08;;;;;;;3.63;1.63;;;;;;;3.05;47.93;101659.53;6350849;28;20050;-78
2024/01/21 08:56:10;;;;;;;4.70;2.03;;;;;;;3.04;48.36;101668.22;6350890;28;20055;-78
2024/01/21 08:59:13;;;;;;;3.00;1.70;;;;;;;3.02;47.51;101653.50;6349241;28;20055;-78
2024/01/21 09:02:14;;;;;;;4.60;1.98;;;;;;;3.02;46.64;101649.16;6346528;28;20044;-78
2024/01/21 09:05:15;;;;;;;4.68;2.63;;;;;;;3.01;48.32;101634.47;6342510;27;20055;-78
2024/01/21 09:08:17;;;;;;;6.45;2.38;;;;;;;3.01;47.55;101629.28;6346167;28;20056;-79
2024/01/21 09:11:18;;;;;;;4.90;2.30;;;;;;;2.97;48.58;101586.03;6346135;28;20122;-78
2024/01/21 09:14:21;;;;;;;6.20;2.40;;;;;;;2.98;47.69;101590.34;6350139;28;20452;-78
2024/01/21 09:17:22;;;;;;;4.25;1.80;;;;;;;2.97;47.76;101604.19;6349843;28;20051;-78
2024/01/21 09:20:24;;;;;;;4.80;2.15;;;;;;;2.99;47.91;101623.22;6347365;28;20439;-78
2024/01/21 09:23:25;;;;;;;4.93;2.30;;;;;;;2.98;49.13;101631.03;6341979;28;20047;-78
2024/01/21 09:26:27;;;;;;;3.17;1.85;;;;;;;2.99;48.47;101643.13;6349640;28;20459;-78
2024/01/21 09:29:29;;;;;;;5.28;2.85;;;;;;;2.98;48.23;101660.44;6350133;28;20047;-77
2024/01/21 09:32:31;;;;;;;5.88;2.85;;;;;;;3.00;49.53;101663.03;6341708;28;20051;-78
2024/01/21 09:35:33;;;;;;;5.68;2.17;;;;;;;2.98;48.69;101668.22;6338031;28;20469;-79
2024/01/21 09:38:35;;;;;;;4.97;2.05;;;;;;;3.00;47.90;101689.00;6347189;28;20058;-78
2024/01/21 09:41:41;;;;;;;6.95;2.67;;;;;;;2.91;51.27;101694.28;6350402;28;20052;-76
2024/01/21 09:44:45;;;;;;;4.60;2.40;;;;;;;2.94;49.77;101691.63;6347150;28;20055;-76
2024/01/21 09:47:50;;;;;;;9.25;2.58;;;;;;;2.95;49.65;101680.38;6347828;28;20450;-78
2024/01/21 09:50:52;;;;;;;4.75;2.33;;;;;;;2.93;50.34;101687.31;6348492;28;20050;-78
2024/01/21 09:53:54;;;;;;;6.13;2.60;;;;;;;2.96;51.55;101677.78;6349997;28;20063;-78
2024/01/21 09:56:55;;;;;;;8.75;3.13;;;;;;;2.92;50.88;101678.66;6348191;28;20375;-79
2024/01/21 09:59:58;;;;;;;4.75;2.45;;;;;;;2.90;51.74;101683.00;6347927;28;20047;-77
2024/01/21 10:02:59;;;;;;;9.50;2.88;;;;;;;2.88;50.65;101663.97;6343123;28;20040;-77
2024/01/21 10:06:00;;;;;;;4.38;2.38;;;;;;;2.90;52.03;101675.19;6341493;28;20048;-77
2024/01/21 10:09:12;;;;;;;4.45;2.38;;;;;;;2.96;51.60;101649.22;6346719;28;20360;-77
2024/01/21 10:12:13;;;;;;;6.30;2.53;;;;;;;3.02;51.58;101682.06;6349123;28;20093;-77
2024/01/21 10:15:16;;;;;;;5.22;2.50;;;;;;;3.08;51.01;101665.56;6347500;28;20052;-76
2024/01/21 10:18:17;;;;;;;5.82;2.72;;;;;;;3.17;52.17;101642.13;6344544;28;20044;-78
2024/01/21 10:21:19;;;;;;;6.03;2.55;;;;;;;3.18;51.94;101620.47;6347214;28;20043;-76
2024/01/21 10:24:23;;;;;;;5.13;2.20;;;;;;;3.17;52.37;101622.19;6340747;28;20129;-78
2024/01/21 10:27:24;;;;;;;4.20;2.35;;;;;;;3.20;51.85;101624.78;6340781;28;20653;-77
2024/01/21 10:30:27;;;;;;;4.80;2.63;;;;;;;3.27;50.43;101616.06;6346001;28;20047;-77
2024/01/21 10:33:28;;;;;;;6.78;2.38;;;;;;;3.42;51.77;101624.59;6344808;28;20343;-77
2024/01/21 10:36:33;;;;;;;5.93;2.60;;;;;;;3.47;51.22;101628.00;6339127;28;20047;-77
2024/01/21 10:39:36;;;;;;;5.80;2.55;;;;;;;3.44;50.79;101628.88;6348893;28;20443;-77
2024/01/21 10:42:40;;;;;;;4.00;2.42;;;;;;;3.56;50.82;101635.72;6344350;28;20036;-76
2024/01/21 10:45:45;;;;;;;6.30;2.60;;;;;;;3.56;50.51;101654.75;6345434;28;20048;-77
2024/01/21 10:48:48;;;;;;;4.65;1.90;;;;;;;3.61;49.68;101640.84;6349909;28;20058;-78
2024/01/21 10:51:53;;;;;;;5.28;2.38;;;;;;;3.56;51.50;101640.91;6352679;28;20046;-77
2024/01/21 10:54:55;;;;;;;4.88;2.40;;;;;;;3.67;50.56;101631.25;6347783;28;20054;-77
2024/01/21 10:57:56;;;;;;;8.00;2.13;;;;;;;3.62;50.96;101624.38;6352709;28;20074;-77
2024/01/21 11:01:00;;;;;;;3.38;2.10;;;;;;;3.62;51.59;101614.84;6332463;28;20055;-78
2024/01/21 11:04:07;;;;;;;8.50;2.80;;;;;;;3.68;51.01;101622.59;6328430;28;20455;-77
2024/01/21 11:07:13;;;;;;;7.00;2.75;;;;;;;3.74;50.55;101613.84;6350514;28;20055;-77
2024/01/21 11:10:18;;;;;;;5.63;2.90;;;;;;;3.74;49.79;101622.50;6353196;28;20055;-78
2024/01/21 11:13:39;;;;;;;5.57;2.45;;;;;;;3.96;50.13;101627.47;6353468;28;20075;-78
2024/01/21 11:16:42;;;;;;;6.63;2.72;;;;;;;3.95;50.46;101617.94;6347962;28;20051;-77
2024/01/21 11:19:45;;;;;;;10.40;2.50;;;;;;;3.90;51.75;101609.31;6347359;28;20348;-78
2024/01/21 11:22:46;;;;;;;6.50;2.55;;;;;;;3.92;53.04;101611.03;6353516;28;20044;-78
2024/01/21 11:25:51;;;;;;;4.75;2.45;;;;;;;3.97;53.07;101624.00;6352826;28;20055;-78
2024/01/21 11:28:52;;;;;;;8.50;3.33;;;;;;;3.90;54.45;101617.97;6353542;28;20135;-77
2024/01/21 11:31:58;;;;;;;5.40;2.53;;;;;;;3.95;53.31;101630.94;6353108;28;20459;-79
2024/01/21 11:35:07;;;;;;;11.18;3.15;;;;;;;3.90;54.70;101630.97;6328202;28;20143;-78
2024/01/21 11:38:09;;;;;;;5.68;2.53;;;;;;;3.91;56.03;101624.94;6327266;28;20098;-78
2024/01/21 11:41:11;;;;;;;6.93;3.00;;;;;;;3.97;54.84;101630.06;6350407;28;20051;-77
2024/01/21 11:44:14;;;;;;;4.57;2.10;;;;;;;3.94;54.45;101631.81;6352842;28;20451;-77
2024/01/21 11:47:17;;;;;;;6.45;3.13;;;;;;;4.05;55.18;101629.97;6352196;28;20063;-76
2024/01/21 11:50:19;;;;;;;8.70;3.00;;;;;;;4.13;54.87;101617.69;6352462;28;20048;-79
2024/01/21 11:53:20;;;;;;;4.32;2.60;;;;;;;4.08;55.51;101615.16;6352391;28;20044;-77
2024/01/21 11:56:21;;;;;;;10.45;2.88;;;;;;;4.15;55.62;101604.69;6349506;28;20043;-78
2024/01/21 11:59:24;;;;;;;5.00;2.42;;;;;;;4.19;55.40;101603.78;6346967;28;20458;-76
2024/01/21 12:02:27;;;;;;;4.35;2.40;;;;;;;4.25;55.62;101621.91;6351875;28;20070;-77
2024/01/21 12:05:28;;;;;;;5.43;2.70;;;;;;;4.32;55.65;101592.34;6343454;28;20052;-77
2024/01/21 12:08:30;;;;;;;6.40;2.95;;;;;;;4.28;57.21;101590.66;6346138;28;20051;-77
2024/01/21 12:11:32;;;;;;;7.30;2.47;;;;;;;4.39;55.97;101593.09;6351909;28;20051;-77
2024/01/21 12:14:33;;;;;;;7.63;2.65;;;;;;;4.49;56.22;101589.47;6347670;28;20130;-77
2024/01/21 12:17:37;;;;;;;4.15;2.08;;;;;;;4.61;57.51;101589.28;6348013;28;20044;-77
2024/01/21 12:20:40;;;;;;;4.80;2.05;;;;;;;4.70;58.68;101581.34;6360666;22;20051;-72
2024/01/21 12:23:43;;;;;;;7.20;2.53;;;;;;;4.79;59.00;101591.59;6313459;28;20047;-71
2024/01/21 12:26:45;;;;;;;5.80;2.20;;;;;;;4.81;59.42;101599.38;6325149;28;20044;-71
2024/01/21 12:29:47;;;;;;;5.18;2.28;;;;;;;4.97;60.38;101587.84;6318002;28;20044;-71
2024/01/21 12:32:50;;;;;;;4.93;2.42;;;;;;;4.89;61.93;101581.03;6309148;28;20067;-71
2024/01/21 12:35:52;;;;;;;4.35;2.40;;;;;;;4.81;65.23;101579.44;6300506;28;20040;-71
2024/01/21 12:38:54;;;;;;;10.77;3.42;;;;;;;4.78;63.59;101586.44;6300751;28;20052;-70
2024/01/21 12:41:55;;;;;;;5.13;2.28;;;;;;;4.87;63.90;101578.47;6300871;28;20425;-71
2024/01/21 12:44:56;;;;;;;3.70;2.17;;;;;;;4.94;63.79;101576.63;6292327;28;20059;-72
2024/01/21 12:47:59;;;;;;;5.55;2.65;;;;;;;5.06;63.91;101572.06;6304538;28;20075;-71
2024/01/21 12:51:00;;;;;;;7.78;2.45;;;;;;;5.00;64.99;101569.56;6316718;28;20075;-71
2024/01/21 12:54:02;;;;;;;5.70;2.65;;;;;;;4.96;66.10;101573.13;6290271;28;20045;-71
2024/01/21 12:57:03;;;;;;;4.72;2.33;;;;;;;4.92;67.88;101571.44;6287331;28;20384;-71
2024/01/21 13:00:06;;;;;;;7.40;2.95;;;;;;;4.89;68.29;101555.00;6290137;28;20060;-71
2024/01/21 13:03:09;;;;;;;9.00;2.65;;;;;;;4.88;69.33;101554.16;6298658;28;20049;-72
2024/01/21 13:06:10;;;;;;;5.43;2.63;;;;;;;4.86;70.47;101561.13;6292827;28;20049;-72
2024/01/21 13:09:12;;;;;;;6.05;2.60;;;;;;;4.90;69.98;101556.72;6296374;28;20048;-72
2024/01/21 13:12:14;;;;;;;6.18;2.67;;;;;;;4.95;70.87;101554.88;6300107;28;20044;-71
2024/01/21 13:15:15;;;;;;;6.47;2.70;;;;;;;4.94;71.71;101543.59;6292575;28;20441;-71
2024/01/21 13:18:18;;;;;;;5.38;2.63;;;;;;;4.89;72.77;101535.03;6282737;28;20060;-72
2024/01/21 13:21:19;;;;;;;7.28;3.15;;;;;;;4.96;72.99;101533.19;6284377;28;20049;-71
2024/01/21 13:24:21;;;;;;;7.38;3.13;;;;;;;4.96;72.44;101551.41;6292654;28;20049;-71
2024/01/21 13:27:26;;;;;;;6.38;3.33;;;;;;;4.91;73.75;101548.91;6287158;28;20040;-71
2024/01/21 13:30:46;;;;;;;7.13;3.35;;;;;;;4.92;74.15;101554.97;6296578;28;20045;-72
2024/01/21 13:33:49;;;;;;;5.28;2.70;;;;;;;4.92;75.43;101570.59;6286261;28;20072;-71
2024/01/21 13:36:50;;;;;;;6.65;3.13;;;;;;;4.90;75.82;101573.19;6293943;28;20425;-72
2024/01/21 13:39:51;;;;;;;8.20;3.15;;;;;;;4.92;76.76;101571.44;6286349;28;20429;-72
2024/01/21 13:42:54;;;;;;;7.70;2.92;;;;;;;4.92;75.98;101570.59;6292347;28;20441;-71
2024/01/21 13:45:56;;;;;;;7.60;3.17;;;;;;;4.94;76.96;101574.00;6291134;28;20052;-71
2024/01/21 13:48:58;;;;;;;5.97;2.88;;;;;;;4.80;77.96;101587.25;6290724;28;20049;-72
2024/01/21 13:52:01;;;;;;;8.63;3.95;;;;;;;4.81;79.35;101599.38;6296037;28;20045;-71
2024/01/21 13:55:05;;;;;;;6.57;3.03;;;;;;;4.89;79.23;101596.66;6293926;28;20338;-71
2024/01/21 13:58:06;;;;;;;6.07;3.20;;;;;;;4.94;79.46;101595.69;6303141;28;20052;-71
2024/01/21 14:01:08;;;;;;;7.50;3.17;;;;;;;4.78;82.24;101592.50;6298541;28;20048;-72
2024/01/21 14:04:11;;;;;;;8.68;3.00;;;;;;;4.78;82.35;101600.31;6310250;28;20440;-72
2024/01/21 14:07:13;;;;;;;9.60;3.28;;;;;;;4.74;83.22;101598.63;6303089;28;20049;-71
2024/01/21 14:10:14;;;;;;;11.20;3.80;;;;;;;4.84;83.74;101597.59;6312024;28;20097;-71
2024/01/21 14:13:16;;;;;;;8.13;3.95;;;;;;;4.89;84.02;101597.53;6299254;28;20384;-71
2024/01/21 14:16:18;;;;;;;8.27;2.92;;;;;;;4.94;83.72;101613.94;6300057;28;20070;-73
2024/01/21 14:19:21;;;;;;;8.25;3.58;;;;;;;4.90;85.50;101593.19;6304203;28;20432;-73